Time;durP1;ratioP1;P1;durP2;ratioP2;P2;SDS_P1;SDS_P2;PMS_P1;PMS_P2;Temp;Humidity;BMP_temperature;BMP_pressure;BME280_temperature;BME280_humidity;BME280_pressure;Samples;Min_cycle;Max_cycle;Signal;HPM_P1;HPM_P2
2022/02/15 00:00:34;;;;;;;;;;;;;;;10.81;58.08;102187.53;145002;920;1019;-86
2022/02/15 00:03:01;;;;;;;;;;;;;;;10.78;57.83;102187.38;145002;920;1017;-86
2022/02/15 00:05:27;;;;;;;;;;;;;;;10.75;57.74;102189.81;145002;925;1019;-85
2022/02/15 00:07:53;;;;;;;;;;;;;;;10.72;58.20;102179.25;145002;925;1017;-85
2022/02/15 00:10:21;;;;;;;;;;;;;;;10.69;58.30;102185.22;145002;924;1017;-83
2022/02/15 00:15:19;;;;;;;;;;;;;;;10.73;58.62;102188.84;145002;587;1409;-85
2022/02/15 00:17:50;;;;;;;;;;;;;;;10.82;58.64;102189.34;145002;927;1019;-87
2022/02/15 00:20:18;;;;;;;;;;;;;;;10.87;58.57;102177.47;145002;922;1017;-87
2022/02/15 00:22:44;;;;;;;;;;;;;;;10.88;58.49;102178.34;145002;927;1017;-86
2022/02/15 00:25:10;;;;;;;;;;;;;;;10.85;58.51;102184.31;145002;922;1018;-84
2022/02/15 00:27:36;;;;;;;;;;;;;;;10.74;58.72;102177.66;145002;927;1019;-85
2022/02/15 00:30:05;;;;;;;;;;;;;;;10.66;58.90;102177.25;145002;919;1018;-86
2022/02/15 00:32:32;;;;;;;;;;;;;;;10.64;58.96;102178.87;145002;927;1017;-86
2022/02/15 00:34:58;;;;;;;;;;;;;;;10.63;58.76;102176.22;145002;923;1016;-85
2022/02/15 00:37:24;;;;;;;;;;;;;;;10.60;58.98;102176.94;145002;923;1021;-85
2022/02/15 00:39:56;;;;;;;;;;;;;;;10.59;58.60;102180.31;145002;922;1017;-85
2022/02/15 00:42:24;;;;;;;;;;;;;;;10.61;58.89;102175.22;145002;927;1020;-85
2022/02/15 00:44:50;;;;;;;;;;;;;;;10.66;58.69;102176.37;145002;924;1016;-87
2022/02/15 00:47:16;;;;;;;;;;;;;;;10.68;58.62;102179.94;145002;922;1017;-85
2022/02/15 00:49:44;;;;;;;;;;;;;;;10.65;58.47;102179.78;145002;923;1016;-87
2022/02/15 00:52:11;;;;;;;;;;;;;;;10.61;58.37;102178.72;145002;927;1020;-87
2022/02/15 00:54:37;;;;;;;;;;;;;;;10.57;58.37;102176.75;145002;922;1021;-87
2022/02/15 00:57:03;;;;;;;;;;;;;;;10.55;58.52;102177.47;145002;927;1019;-87
2022/02/15 00:59:31;;;;;;;;;;;;;;;10.55;58.41;102170.59;145002;923;1017;-86
2022/02/15 01:01:58;;;;;;;;;;;;;;;10.55;58.44;102177.47;145002;926;1017;-87
2022/02/15 01:04:24;;;;;;;;;;;;;;;10.57;58.17;102175.87;145002;923;1017;-87
2022/02/15 01:06:50;;;;;;;;;;;;;;;10.57;57.88;102173.28;145002;928;1019;-86
2022/02/15 01:09:16;;;;;;;;;;;;;;;10.57;57.97;102173.28;145002;918;1017;-85
2022/02/15 01:11:43;;;;;;;;;;;;;;;10.56;57.89;102167.19;145002;923;1018;-86
2022/02/15 01:14:12;;;;;;;;;;;;;;;10.58;57.94;102172.44;145002;923;1020;-87
2022/02/15 01:16:38;;;;;;;;;;;;;;;10.59;57.96;102169.06;145002;926;1017;-87
2022/02/15 01:19:04;;;;;;;;;;;;;;;10.57;58.04;102166.38;145002;923;1017;-86
2022/02/15 01:21:30;;;;;;;;;;;;;;;10.56;57.69;102159.37;145002;927;1018;-87
2022/02/15 01:23:56;;;;;;;;;;;;;;;10.53;57.91;102160.13;145002;918;1021;-85
2022/02/15 01:26:22;;;;;;;;;;;;;;;10.50;57.99;102165.16;145002;923;1016;-85
2022/02/15 01:28:49;;;;;;;;;;;;;;;10.48;57.77;102151.22;145002;923;1021;-86
2022/02/15 01:31:15;;;;;;;;;;;;;;;10.45;57.69;102150.12;145001;928;2000;-85
2022/02/15 01:33:41;;;;;;;;;;;;;;;10.41;58.01;102158.59;145002;923;1018;-86
2022/02/15 01:36:07;;;;;;;;;;;;;;;10.37;57.86;102147.12;145002;923;1017;-86
2022/02/15 01:38:34;;;;;;;;;;;;;;;10.34;57.92;102150.47;145002;918;1019;-85
2022/02/15 01:41:05;;;;;;;;;;;;;;;10.36;58.29;102141.87;145002;927;1017;-87
2022/02/15 01:48:46;;;;;;;;;;;;;;;10.55;58.04;102136.84;145001;642;2000;-87
2022/02/15 01:51:13;;;;;;;;;;;;;;;10.60;57.98;102131.91;145002;927;1017;-86
2022/02/15 01:53:42;;;;;;;;;;;;;;;10.59;58.27;102130.97;145002;922;1020;-87
2022/02/15 01:56:10;;;;;;;;;;;;;;;10.61;58.01;102131.97;145002;926;1017;-88
2022/02/15 01:58:36;;;;;;;;;;;;;;;10.62;58.23;102122.47;145002;923;1016;-86
2022/02/15 02:03:34;;;;;;;;;;;;;;;10.65;57.83;102117.44;145002;924;1016;-86
2022/02/15 02:06:00;;;;;;;;;;;;;;;10.57;57.96;102129.13;145002;923;1022;-85
2022/02/15 02:08:27;;;;;;;;;;;;;;;10.53;57.87;102128.97;145002;919;1020;-85
2022/02/15 02:10:54;;;;;;;;;;;;;;;10.49;57.81;102123.53;145002;923;1016;-86
2022/02/15 02:13:34;;;;;;;;;;;;;;;10.44;58.02;102127.59;145002;923;1020;-85
2022/02/15 02:16:06;;;;;;;;;;;;;;;10.41;58.28;102123.12;145001;923;2000;-84
2022/02/15 02:18:34;;;;;;;;;;;;;;;10.38;58.16;102119.50;145002;919;1016;-86
2022/02/15 02:21:08;;;;;;;;;;;;;;;10.36;57.97;102123.72;145002;923;1020;-86
2022/02/15 02:23:34;;;;;;;;;;;;;;;10.32;58.02;102118.34;145002;922;1021;-86
2022/02/15 02:26:01;;;;;;;;;;;;;;;10.31;58.05;102129.50;145002;919;1016;-85
2022/02/15 02:28:30;;;;;;;;;;;;;;;10.32;57.97;102133.94;145002;923;1017;-86
2022/02/15 02:30:56;;;;;;;;;;;;;;;10.32;58.15;102128.75;145002;923;1018;-87
2022/02/15 02:33:27;;;;;;;;;;;;;;;10.30;58.02;102137.22;145002;572;1418;-87
2022/02/15 02:36:00;;;;;;;;;;;;;;;10.38;57.88;102148.94;145002;925;1017;-85
2022/02/15 02:38:26;;;;;;;;;;;;;;;10.40;57.75;102144.69;145002;920;1018;-86
2022/02/15 02:40:53;;;;;;;;;;;;;;;10.39;57.77;102145.53;145002;921;1020;-87
2022/02/15 02:43:19;;;;;;;;;;;;;;;10.38;57.57;102151.53;145002;921;1017;-86
2022/02/15 02:45:45;;;;;;;;;;;;;;;10.34;57.53;102157.38;145002;920;1021;-87
2022/02/15 02:48:11;;;;;;;;;;;;;;;10.14;57.72;102164.91;145002;917;1016;-81
2022/02/15 02:50:38;;;;;;;;;;;;;;;10.22;57.89;102167.94;145002;921;1017;-87
2022/02/15 02:55:38;;;;;;;;;;;;;;;10.25;57.50;102173.28;145002;477;1403;-87
2022/02/15 02:58:05;;;;;;;;;;;;;;;10.32;57.79;102174.50;145002;584;1417;-86
2022/02/15 03:00:34;;;;;;;;;;;;;;;10.34;57.90;102173.84;145002;925;1018;-84
2022/02/15 03:03:07;;;;;;;;;;;;;;;10.37;57.88;102174.81;145001;696;2000;-85
2022/02/15 03:05:34;;;;;;;;;;;;;;;10.41;58.23;102171.56;145002;925;1019;-85
2022/02/15 03:08:00;;;;;;;;;;;;;;;10.43;57.96;102180.31;145002;920;1020;-86
2022/02/15 03:10:26;;;;;;;;;;;;;;;10.37;57.98;102183.47;145002;920;1020;-87
2022/02/15 03:12:52;;;;;;;;;;;;;;;10.31;58.31;102184.00;145002;920;1022;-87
2022/02/15 03:15:18;;;;;;;;;;;;;;;10.24;58.29;102187.06;145002;924;1018;-87
2022/02/15 03:17:44;;;;;;;;;;;;;;;10.20;58.06;102181.63;145002;920;1016;-86
2022/02/15 03:20:11;;;;;;;;;;;;;;;10.15;58.15;102190.06;145002;925;1020;-86
2022/02/15 03:22:36;;;;;;;;;;;;;;;10.13;57.86;102195.97;145002;920;1020;-88
2022/02/15 03:25:03;;;;;;;;;;;;;;;10.09;58.07;102197.50;145002;920;1018;-86
2022/02/15 03:27:30;;;;;;;;;;;;;;;10.06;57.82;102191.28;145002;920;1017;-88
2022/02/15 03:29:56;;;;;;;;;;;;;;;10.03;57.91;102188.50;145002;924;1021;-82
2022/02/15 03:32:23;;;;;;;;;;;;;;;9.97;58.01;102184.78;145002;916;1017;-86
2022/02/15 03:34:49;;;;;;;;;;;;;;;9.95;58.01;102190.66;145002;924;1019;-84
2022/02/15 03:37:16;;;;;;;;;;;;;;;9.91;58.16;102186.09;145002;921;1020;-83
2022/02/15 03:39:42;;;;;;;;;;;;;;;9.89;58.11;102183.41;145002;924;1020;-86
2022/02/15 03:44:53;;;;;;;;;;;;;;;9.78;58.84;102187.13;145002;922;1022;-85
2022/02/15 03:47:24;;;;;;;;;;;;;;;9.70;59.04;102198.75;145002;920;1018;-86
2022/02/15 03:50:01;;;;;;;;;;;;;;;;;;;;;
2022/02/15 03:52:29;;;;;;;;;;;;;;;9.87;58.92;102194.53;145001;600;1998;-87
2022/02/15 03:54:55;;;;;;;;;;;;;;;9.89;59.06;102192.91;145002;923;1017;-85
2022/02/15 03:57:21;;;;;;;;;;;;;;;9.87;58.96;102197.13;145002;919;1019;-88
2022/02/15 03:59:47;;;;;;;;;;;;;;;9.76;59.36;102215.56;145002;922;1021;-85
2022/02/15 04:02:14;;;;;;;;;;;;;;;9.66;59.45;102220.16;145002;922;1022;-87
2022/02/15 04:04:39;;;;;;;;;;;;;;;9.62;59.76;102217.38;145002;926;1019;-86
2022/02/15 04:07:05;;;;;;;;;;;;;;;9.66;59.90;102221.03;145002;918;1021;-86
2022/02/15 04:09:32;;;;;;;;;;;;;;;9.70;59.75;102217.78;145002;926;1017;-87
2022/02/15 04:12:03;;;;;;;;;;;;;;;9.72;60.04;102221.41;145002;922;1017;-85
2022/02/15 04:14:29;;;;;;;;;;;;;;;9.78;59.97;102220.84;145002;926;1017;-85
2022/02/15 04:16:57;;;;;;;;;;;;;;;9.86;59.73;102224.75;145002;918;1018;-86
2022/02/15 04:19:23;;;;;;;;;;;;;;;9.90;59.79;102220.66;145002;926;1017;-86
2022/02/15 04:21:52;;;;;;;;;;;;;;;9.96;59.88;102214.09;145002;922;1016;-87
2022/02/15 04:24:19;;;;;;;;;;;;;;;10.03;59.62;102219.63;145002;926;1018;-87
2022/02/15 04:26:49;;;;;;;;;;;;;;;10.07;59.52;102219.91;145002;922;1016;-87
2022/02/15 04:29:14;;;;;;;;;;;;;;;10.08;59.05;102216.47;145002;927;1018;-88
2022/02/15 04:31:40;;;;;;;;;;;;;;;10.07;59.16;102218.97;145002;918;1017;-86
2022/02/15 04:34:06;;;;;;;;;;;;;;;10.05;58.98;102225.78;145002;922;1016;-86
2022/02/15 04:36:35;;;;;;;;;;;;;;;10.05;58.81;102228.38;145002;922;1020;-86
2022/02/15 04:39:01;;;;;;;;;;;;;;;10.01;58.66;102224.75;145002;926;1018;-87
2022/02/15 04:41:27;;;;;;;;;;;;;;;9.98;58.70;102232.34;145002;918;1017;-85
2022/02/15 04:43:53;;;;;;;;;;;;;;;9.98;58.59;102233.22;145002;926;1017;-86
2022/02/15 04:46:19;;;;;;;;;;;;;;;9.95;58.53;102232.19;145002;918;1019;-85
2022/02/15 04:48:45;;;;;;;;;;;;;;;9.92;58.45;102226.81;145002;927;1018;-85
2022/02/15 04:51:12;;;;;;;;;;;;;;;9.88;58.41;102228.34;145002;918;1020;-86
2022/02/15 04:53:38;;;;;;;;;;;;;;;9.85;58.63;102228.16;145002;926;1019;-85
2022/02/15 04:56:04;;;;;;;;;;;;;;;9.82;58.73;102232.31;145002;923;1017;-86
2022/02/15 04:58:31;;;;;;;;;;;;;;;9.78;58.66;102236.41;145002;926;1017;-86
2022/02/15 05:00:57;;;;;;;;;;;;;;;9.75;58.90;102244.91;145002;922;1018;-85
2022/02/15 05:03:23;;;;;;;;;;;;;;;9.72;58.79;102244.72;145002;922;1018;-83
2022/02/15 05:05:49;;;;;;;;;;;;;;;9.70;58.98;102242.84;145002;922;1021;-85
2022/02/15 05:08:15;;;;;;;;;;;;;;;9.67;59.02;102241.00;145002;922;1016;-85
2022/02/15 05:10:41;;;;;;;;;;;;;;;9.63;59.16;102244.19;145002;923;1021;-85
2022/02/15 05:13:11;;;;;;;;;;;;;;;9.62;59.35;102250.19;145002;923;1021;-85
2022/02/15 05:15:38;;;;;;;;;;;;;;;9.59;59.17;102252.59;145002;922;1017;-85
2022/02/15 05:18:04;;;;;;;;;;;;;;;9.59;59.37;102252.59;145002;926;1016;-85
2022/02/15 05:20:30;;;;;;;;;;;;;;;9.58;59.38;102248.22;145002;923;1018;-86
2022/02/15 05:22:56;;;;;;;;;;;;;;;9.57;59.32;102254.22;145002;926;1017;-85
2022/02/15 05:25:23;;;;;;;;;;;;;;;9.41;59.81;102250.72;145002;922;1020;-85
2022/02/15 05:27:55;;;;;;;;;;;;;;;9.46;59.91;102263.94;145002;926;1021;-87
2022/02/15 05:30:28;;;;;;;;;;;;;;;9.52;59.75;102263.41;145002;604;1355;-87
2022/02/15 05:35:30;;;;;;;;;;;;;;;9.72;59.81;102272.34;145002;592;1405;-86
2022/02/15 05:40:35;;;;;;;;;;;;;;;9.88;59.31;102269.84;145003;600;1503;-86
2022/02/15 05:43:01;;;;;;;;;;;;;;;9.86;59.28;102280.94;145003;927;1021;-84
2022/02/15 05:45:31;;;;;;;;;;;;;;;9.85;58.96;102272.25;145003;922;1020;-86
2022/02/15 05:48:02;;;;;;;;;;;;;;;9.88;59.14;102281.91;145003;926;1016;-84
2022/02/15 05:50:49;;;;;;;;;;;;;;;9.94;59.13;102282.25;145003;922;1020;-87
2022/02/15 05:53:16;;;;;;;;;;;;;;;9.98;58.84;102285.13;145003;926;1020;-88
2022/02/15 05:55:41;;;;;;;;;;;;;;;9.98;59.01;102287.72;145003;922;1016;-84
2022/02/15 05:58:10;;;;;;;;;;;;;;;9.90;59.23;102285.50;145003;923;1020;-85
2022/02/15 06:00:37;;;;;;;;;;;;;;;9.97;59.28;102290.22;145003;922;1021;-85
2022/02/15 06:04:10;;;;;;;;;;;;;;;10.00;59.02;102280.03;145003;926;1020;-83
2022/02/15 06:05:50;;;;;;;;;;;;;;;10.01;59.08;102281.81;145002;914;1020;-84
2022/02/15 06:08:19;;;;;;;;;;;;;;;10.01;59.10;102281.81;145002;922;1021;-85
2022/02/15 06:10:46;;;;;;;;;;;;;;;10.04;59.34;102289.78;145002;918;1019;-85
2022/02/15 06:13:13;;;;;;;;;;;;;;;10.02;59.44;102288.78;145002;923;1021;-84
2022/02/15 06:15:39;;;;;;;;;;;;;;;9.96;60.01;102291.06;145002;918;1018;-85
2022/02/15 06:18:05;;;;;;;;;;;;;;;10.07;59.84;102291.63;145002;922;1019;-85
2022/02/15 06:20:31;;;;;;;;;;;;;;;10.17;59.78;102292.25;145002;914;1019;-84
2022/02/15 06:23:00;;;;;;;;;;;;;;;10.22;59.91;102294.22;145002;922;1021;-85
2022/02/15 06:25:26;;;;;;;;;;;;;;;10.27;59.96;102290.19;145002;918;1018;-86
2022/02/15 06:27:52;;;;;;;;;;;;;;;10.38;59.75;102291.69;145002;922;1022;-82
2022/02/15 06:30:18;;;;;;;;;;;;;;;10.46;59.48;102297.31;145002;914;1019;-84
2022/02/15 06:32:44;;;;;;;;;;;;;;;10.56;59.52;102293.53;145002;922;1018;-83
2022/02/15 06:35:10;;;;;;;;;;;;;;;10.64;59.28;102292.25;145002;918;1019;-82
2022/02/15 06:37:40;;;;;;;;;;;;;;;10.71;59.19;102299.56;145002;918;1019;-84
2022/02/15 06:40:07;;;;;;;;;;;;;;;10.80;59.07;102304.34;145002;918;1022;-83
2022/02/15 06:42:33;;;;;;;;;;;;;;;10.88;59.10;102308.25;145002;923;1018;-83
2022/02/15 06:45:00;;;;;;;;;;;;;;;10.96;58.99;102306.06;145002;918;1021;-84
2022/02/15 06:47:26;;;;;;;;;;;;;;;11.04;58.91;102310.88;145002;922;1019;-85
2022/02/15 06:49:52;;;;;;;;;;;;;;;11.13;58.68;102313.06;145002;914;1025;-83
2022/02/15 06:52:18;;;;;;;;;;;;;;;11.17;58.73;102308.94;145002;918;1020;-84
2022/02/15 06:54:44;;;;;;;;;;;;;;;11.09;57.93;102308.53;145002;918;1020;-84
2022/02/15 06:57:10;;;;;;;;;;;;;;;11.06;59.56;102303.16;145002;923;1019;-84
2022/02/15 06:59:40;;;;;;;;;;;;;;;11.23;59.78;102307.56;145001;918;1998;-84
2022/02/15 07:02:19;;;;;;;;;;;;;;;11.51;59.42;102308.97;145002;924;1017;-83
2022/02/15 07:04:46;;;;;;;;;;;;;;;11.80;59.18;102309.53;145002;920;1017;-84
2022/02/15 07:07:16;;;;;;;;;;;;;;;12.12;58.48;102303.38;145002;924;1017;-89
2022/02/15 07:09:42;;;;;;;;;;;;;;;12.39;58.29;102302.94;145002;920;1019;-84
2022/02/15 07:12:08;;;;;;;;;;;;;;;12.62;57.85;102300.50;145002;925;1020;-86
2022/02/15 07:14:35;;;;;;;;;;;;;;;12.80;57.72;102303.94;145002;911;1018;-86
2022/02/15 07:17:01;;;;;;;;;;;;;;;12.98;57.62;102303.00;145002;924;1016;-84
2022/02/15 07:19:32;;;;;;;;;;;;;;;13.14;57.69;102302.88;145002;921;1017;-84
2022/02/15 07:21:58;;;;;;;;;;;;;;;13.28;57.86;102302.59;145002;924;1018;-84
2022/02/15 07:24:30;;;;;;;;;;;;;;;13.40;58.07;102308.37;145002;920;1019;-85
2022/02/15 07:26:56;;;;;;;;;;;;;;;13.60;57.98;102311.84;145002;630;1411;-84
2022/02/15 07:29:22;;;;;;;;;;;;;;;13.74;58.04;102297.69;145002;919;1022;-83
2022/02/15 07:31:49;;;;;;;;;;;;;;;13.88;58.08;102306.06;145002;922;1017;-83
2022/02/15 07:34:15;;;;;;;;;;;;;;;13.98;58.46;102307.34;145002;922;1019;-84
2022/02/15 07:36:41;;;;;;;;;;;;;;;14.08;58.43;102300.78;145002;922;1019;-82
2022/02/15 07:39:07;;;;;;;;;;;;;;;14.17;58.00;102298.53;145002;922;1021;-83
2022/02/15 07:41:34;;;;;;;;;;;;;;;14.28;58.72;102286.78;145002;923;1017;-84
2022/02/15 07:44:02;;;;;;;;;;;;;;;14.42;58.51;102292.56;145002;922;1019;-87
2022/02/15 07:46:29;;;;;;;;;;;;;;;14.58;58.40;102299.28;145002;922;1017;-87
2022/02/15 07:48:55;;;;;;;;;;;;;;;14.58;56.58;102293.16;145002;922;1017;-85
2022/02/15 07:51:21;;;;;;;;;;;;;;;14.79;58.44;102301.84;145002;918;1021;-86
2022/02/15 07:53:48;;;;;;;;;;;;;;;14.87;56.96;102297.81;145002;922;1016;-85
2022/02/15 07:56:15;;;;;;;;;;;;;;;14.97;57.97;102298.13;145002;922;1017;-84
2022/02/15 07:58:44;;;;;;;;;;;;;;;15.13;58.05;102299.56;145002;922;1020;-84
2022/02/15 08:01:10;;;;;;;;;;;;;;;15.21;56.25;102293.81;145002;922;1016;-82
2022/02/15 08:03:39;;;;;;;;;;;;;;;15.33;57.85;102297.69;145002;922;1018;-85
2022/02/15 08:06:06;;;;;;;;;;;;;;;15.47;58.48;102291.19;145002;922;1018;-86
2022/02/15 08:08:33;;;;;;;;;;;;;;;15.65;58.10;102287.44;145002;922;1020;-84
2022/02/15 08:11:00;;;;;;;;;;;;;;;15.77;58.10;102294.00;145002;922;1018;-86
2022/02/15 08:13:37;;;;;;;;;;;;;;;15.86;58.28;102285.59;145002;922;1017;-84
2022/02/15 08:16:04;;;;;;;;;;;;;;;15.96;57.44;102284.16;145002;922;1020;-84
2022/02/15 08:18:33;;;;;;;;;;;;;;;16.02;57.94;102284.34;145002;922;1020;-85
2022/02/15 08:20:59;;;;;;;;;;;;;;;16.10;57.63;102292.47;145002;922;1017;-83
2022/02/15 08:23:26;;;;;;;;;;;;;;;16.18;57.95;102290.97;145002;922;1019;-84
2022/02/15 08:26:08;;;;;;;;;;;;;;;;;;;;;
2022/02/15 08:28:40;;;;;;;;;;;;;;;16.48;57.79;102285.78;145002;920;1017;-84
2022/02/15 08:31:11;;;;;;;;;;;;;;;16.61;57.09;102288.78;145002;920;1021;-84
2022/02/15 08:33:39;;;;;;;;;;;;;;;16.75;57.00;102294.41;145002;920;1020;-85
2022/02/15 08:36:07;;;;;;;;;;;;;;;16.88;56.64;102286.12;145002;920;1018;-85
2022/02/15 08:38:34;;;;;;;;;;;;;;;16.93;56.84;102288.88;145002;920;1018;-84
2022/02/15 08:41:00;;;;;;;;;;;;;;;16.74;54.60;102285.66;145002;920;1020;-83
2022/02/15 08:43:27;;;;;;;;;;;;;;;16.69;55.47;102285.53;145002;920;1018;-85
2022/02/15 08:45:54;;;;;;;;;;;;;;;16.69;56.38;102287.28;145002;920;1022;-85
2022/02/15 08:48:21;;;;;;;;;;;;;;;16.75;56.63;102289.16;145001;920;1998;-84
2022/02/15 08:50:49;;;;;;;;;;;;;;;16.86;55.79;102278.19;145002;922;1016;-85
2022/02/15 08:53:15;;;;;;;;;;;;;;;16.79;54.57;102268.31;145002;922;1016;-84
2022/02/15 08:55:42;;;;;;;;;;;;;;;16.95;56.73;102280.19;145002;918;1017;-84
2022/02/15 08:58:08;;;;;;;;;;;;;;;16.13;51.37;102263.75;145002;922;1021;-86
2022/02/15 09:00:35;;;;;;;;;;;;;;;16.58;56.35;102273.84;145002;922;1017;-85
2022/02/15 09:03:01;;;;;;;;;;;;;;;16.69;56.32;102276.78;145002;922;1021;-84
2022/02/15 09:05:27;;;;;;;;;;;;;;;16.78;55.20;102263.03;145002;922;1018;-85
2022/02/15 09:08:02;;;;;;;;;;;;;;;16.83;55.23;102267.59;145002;922;1016;-85
2022/02/15 09:10:28;;;;;;;;;;;;;;;17.07;56.32;102268.25;145002;922;1019;-85
2022/02/15 09:13:00;;;;;;;;;;;;;;;17.11;56.17;102272.75;145002;922;1018;-85
2022/02/15 09:15:30;;;;;;;;;;;;;;;17.14;54.53;102271.09;145002;922;1020;-85
2022/02/15 09:17:57;;;;;;;;;;;;;;;17.28;55.30;102276.72;145002;922;1021;-86
2022/02/15 09:20:24;;;;;;;;;;;;;;;16.46;55.95;102274.37;145002;922;1021;-84
2022/02/15 09:22:51;;;;;;;;;;;;;;;15.59;53.35;102268.06;145002;922;1020;-86
2022/02/15 09:25:18;;;;;;;;;;;;;;;15.93;55.88;102271.84;145002;922;1022;-84
2022/02/15 09:27:47;;;;;;;;;;;;;;;16.23;55.47;102262.28;145002;922;1019;-85
2022/02/15 09:30:15;;;;;;;;;;;;;;;16.50;55.88;102272.72;145002;922;1018;-85
2022/02/15 09:32:41;;;;;;;;;;;;;;;16.67;52.54;102274.13;145002;922;1018;-87
2022/02/15 09:35:07;;;;;;;;;;;;;;;16.91;53.60;102265.22;145002;918;1023;-84
2022/02/15 09:37:33;;;;;;;;;;;;;;;17.07;51.46;102258.66;145002;922;1021;-85
2022/02/15 09:40:00;;;;;;;;;;;;;;;16.84;54.38;102261.47;145002;918;1017;-85
2022/02/15 09:42:29;;;;;;;;;;;;;;;17.03;52.97;102259.41;145002;922;1021;-85
2022/02/15 09:44:56;;;;;;;;;;;;;;;17.07;52.55;102255.12;145002;923;1016;-84
2022/02/15 09:47:24;;;;;;;;;;;;;;;17.30;53.58;102259.28;145002;922;1017;-84
2022/02/15 09:49:50;;;;;;;;;;;;;;;17.45;53.12;102260.50;145002;922;1017;-85
2022/02/15 09:52:18;;;;;;;;;;;;;;;17.63;52.13;102255.75;145002;922;1017;-86
2022/02/15 09:54:50;;;;;;;;;;;;;;;17.56;51.12;102246.84;145002;922;1017;-86
2022/02/15 09:57:22;;;;;;;;;;;;;;;17.47;51.96;102248.34;145002;617;1379;-88
2022/02/15 09:59:51;;;;;;;;;;;;;;;17.52;51.27;102244.09;145002;927;1020;-85
2022/02/15 10:02:24;;;;;;;;;;;;;;;16.27;50.66;102232.72;145002;920;1017;-85
2022/02/15 10:04:57;;;;;;;;;;;;;;;16.66;52.15;102234.75;145002;924;1022;-84
2022/02/15 10:07:24;;;;;;;;;;;;;;;16.47;49.08;102218.47;145002;920;1021;-86
2022/02/15 10:09:51;;;;;;;;;;;;;;;15.68;50.78;102216.87;145002;925;1018;-85
2022/02/15 10:12:18;;;;;;;;;;;;;;;15.91;51.39;102210.66;145002;920;1021;-86
2022/02/15 10:14:45;;;;;;;;;;;;;;;15.91;50.98;102199.31;145002;925;1017;-86
2022/02/15 10:17:16;;;;;;;;;;;;;;;15.91;52.01;102205.44;145002;920;1017;-86
2022/02/15 10:19:43;;;;;;;;;;;;;;;16.28;52.02;102198.69;145002;924;1020;-85
2022/02/15 10:22:10;;;;;;;;;;;;;;;16.39;51.65;102198.12;145002;920;1017;-84
2022/02/15 10:24:39;;;;;;;;;;;;;;;16.71;51.50;102203.41;145002;925;1018;-85
2022/02/15 10:27:11;;;;;;;;;;;;;;;16.76;51.08;102202.69;145002;920;1017;-85
2022/02/15 10:29:39;;;;;;;;;;;;;;;16.83;51.26;102195.87;145002;924;1020;-85
2022/02/15 10:32:06;;;;;;;;;;;;;;;16.80;48.45;102194.06;145002;914;1021;-86
2022/02/15 10:34:33;;;;;;;;;;;;;;;16.16;48.88;102182.59;145002;924;1017;-85
2022/02/15 10:37:03;;;;;;;;;;;;;;;15.71;49.67;102182.94;145002;920;1017;-84
2022/02/15 10:39:51;;;;;;;;;;;;;;;15.76;49.82;102176.09;145001;925;2000;-85
2022/02/15 10:42:21;;;;;;;;;;;;;;;15.49;50.47;102163.91;145002;920;1018;-90
2022/02/15 10:45:08;;;;;;;;;;;;;;;15.40;52.37;102174.97;145002;924;1018;-87
2022/02/15 10:47:49;;;;;;;;;;;;;;;15.93;51.13;102172.31;145001;921;2000;-84
2022/02/15 10:50:16;;;;;;;;;;;;;;;16.00;52.38;102168.16;145002;924;1019;-85
2022/02/15 10:52:42;;;;;;;;;;;;;;;15.37;53.23;102169.63;145002;920;1018;-85
2022/02/15 10:55:09;;;;;;;;;;;;;;;15.30;53.64;102159.78;145002;925;1017;-88
2022/02/15 10:57:39;;;;;;;;;;;;;;;15.19;52.33;102151.59;145002;920;1016;-83
2022/02/15 11:00:13;;;;;;;;;;;;;;;15.69;52.53;102155.81;145002;924;1023;-86
2022/02/15 11:02:49;;;;;;;;;;;;;;;15.74;53.03;102152.50;145002;921;1017;-84
2022/02/15 11:05:21;;;;;;;;;;;;;;;15.93;50.42;102153.09;145002;924;1020;-85
2022/02/15 11:07:47;;;;;;;;;;;;;;;15.94;51.79;102163.62;145002;920;1020;-85
2022/02/15 11:10:31;;;;;;;;;;;;;;;16.09;52.02;102151.84;145002;925;1021;-87
2022/02/15 11:12:58;;;;;;;;;;;;;;;15.84;52.24;102142.34;145002;920;1018;-86
2022/02/15 11:15:30;;;;;;;;;;;;;;;15.92;51.60;102147.00;145002;925;1020;-85
2022/02/15 11:17:58;;;;;;;;;;;;;;;15.47;53.49;102146.38;145002;921;1017;-87
2022/02/15 11:20:27;;;;;;;;;;;;;;;15.18;53.63;102144.59;145002;924;1016;-86
2022/02/15 11:22:56;;;;;;;;;;;;;;;14.93;54.49;102144.59;145002;921;1018;-87
2022/02/15 11:28:17;;;;;;;;;;;;;;;14.76;54.04;102133.53;145002;923;1016;-90
2022/02/15 11:31:00;;;;;;;;;;;;;;;15.05;53.73;102129.34;145002;602;1391;-86
2022/02/15 11:33:28;;;;;;;;;;;;;;;15.35;51.59;102118.09;145002;923;1018;-84
2022/02/15 11:36:03;;;;;;;;;;;;;;;15.51;52.46;102112.53;145002;922;1021;-85
2022/02/15 11:38:29;;;;;;;;;;;;;;;15.39;51.54;102106.88;145002;923;1018;-85
2022/02/15 11:40:57;;;;;;;;;;;;;;;15.07;53.13;102111.97;145002;923;1023;-85
2022/02/15 11:43:24;;;;;;;;;;;;;;;15.43;52.89;102111.41;145002;922;1020;-86
2022/02/15 11:45:56;;;;;;;;;;;;;;;15.53;53.13;102099.47;145002;603;1387;-84
2022/02/15 11:51:06;;;;;;;;;;;;;;;14.93;55.27;102106.25;145002;680;1308;-85
2022/02/15 11:53:36;;;;;;;;;;;;;;;15.09;55.18;102114.63;145002;921;1016;-86
2022/02/15 11:56:07;;;;;;;;;;;;;;;15.41;54.67;102102.59;145002;920;1017;-84
2022/02/15 11:58:41;;;;;;;;;;;;;;;15.31;54.72;102103.16;145002;641;1346;-87
2022/02/15 12:01:27;;;;;;;;;;;;;;;15.11;55.06;102098.16;145002;609;1369;-89
2022/02/15 12:04:00;;;;;;;;;;;;;;;15.18;55.04;102086.16;145002;920;1016;-87
2022/02/15 12:06:42;;;;;;;;;;;;;;;15.01;55.25;102083.84;145002;920;1016;-84
2022/02/15 12:11:57;;;;;;;;;;;;;;;15.12;55.03;102091.19;145002;598;1407;-86
2022/02/15 12:14:40;;;;;;;;;;;;;;;;;;;;;
2022/02/15 12:17:27;;;;;;;;;;;;;;;14.93;56.20;102094.91;145002;919;1017;-87
2022/02/15 12:19:58;;;;;;;;;;;;;;;14.51;56.97;102101.28;145002;920;1018;-86
2022/02/15 12:22:26;;;;;;;;;;;;;;;14.44;57.50;102081.00;145002;921;1024;-85
2022/02/15 12:24:53;;;;;;;;;;;;;;;14.51;57.25;102080.38;145002;920;1020;-88
2022/02/15 12:27:19;;;;;;;;;;;;;;;14.18;59.00;102087.91;145002;920;1021;-85
2022/02/15 12:29:52;;;;;;;;;;;;;;;14.15;58.79;102083.44;145002;920;1018;-86
2022/02/15 12:32:22;;;;;;;;;;;;;;;14.26;58.71;102081.22;145002;921;1026;-86
2022/02/15 12:34:50;;;;;;;;;;;;;;;14.55;57.69;102078.75;145002;920;1018;-86
2022/02/15 12:37:21;;;;;;;;;;;;;;;14.20;58.76;102083.63;145002;921;1022;-87
2022/02/15 12:39:50;;;;;;;;;;;;;;;14.34;59.10;102079.78;145002;921;1024;-86
2022/02/15 12:42:28;;;;;;;;;;;;;;;14.06;59.75;102075.25;145002;920;1020;-90
2022/02/15 12:45:00;;;;;;;;;;;;;;;14.62;58.55;102070.31;145002;920;1016;-85
2022/02/15 12:47:35;;;;;;;;;;;;;;;14.90;57.21;102059.09;145002;707;1285;-86
2022/02/15 12:50:10;;;;;;;;;;;;;;;14.86;57.40;102059.84;145002;466;1475;-88
2022/02/15 12:52:38;;;;;;;;;;;;;;;14.93;57.21;102056.56;145002;925;1018;-88
2022/02/15 12:55:12;;;;;;;;;;;;;;;14.70;57.61;102058.44;145002;921;1020;-90
2022/02/15 12:57:39;;;;;;;;;;;;;;;14.74;57.68;102052.44;145002;925;1020;-87
2022/02/15 13:00:12;;;;;;;;;;;;;;;14.44;58.10;102054.88;145002;921;1017;-87
2022/02/15 13:03:00;;;;;;;;;;;;;;;14.55;58.47;102047.41;145002;925;1017;-85
2022/02/15 13:05:33;;;;;;;;;;;;;;;14.46;59.28;102043.66;145002;921;1020;-86
2022/02/15 13:07:59;;;;;;;;;;;;;;;14.54;58.89;102040.41;145002;925;1017;-86
2022/02/15 13:10:26;;;;;;;;;;;;;;;14.44;59.43;102045.28;145002;920;1018;-87
2022/02/15 13:13:05;;;;;;;;;;;;;;;14.29;60.16;102045.66;145001;924;2000;-89
2022/02/15 13:15:31;;;;;;;;;;;;;;;14.42;59.44;102040.88;145002;921;1023;-85
2022/02/15 13:18:01;;;;;;;;;;;;;;;13.96;60.40;102045.31;145002;924;1018;-86
2022/02/15 13:20:28;;;;;;;;;;;;;;;14.11;59.80;102044.97;145002;921;1019;-89
2022/02/15 13:23:05;;;;;;;;;;;;;;;14.10;59.97;102049.31;145002;925;1016;-89
2022/02/15 13:25:42;;;;;;;;;;;;;;;14.26;59.95;102039.44;145002;920;1017;-89
2022/02/15 13:28:08;;;;;;;;;;;;;;;13.97;60.63;102047.09;145002;925;1023;-83